Aérodrome :
LOGIN :

S'inscrire | Disclaimer

   EN    FR    IT 

 










Légende :    VFR   VFR Marginal   IFR   IFR Intensif   IFR Très Intensif
Visi : 
Plafond : 
>= 8 km
>= 3000ft
5 à 8 km
1000 à 3000 ft
1500m à 5 km
500 à 1000 ft
800 à 1500m
200 à 500 ft
< 800m
< 200 ft
Symboles :   Orages  Brouillard  Fortes neiges  Fortes précipitations  Vent > 20 kt
SIGMETs :   Divers  Orages  Givrage  Turbulence  Onde Orograph.  Cendres Volcan.







- Altitude de l'aérodrome : 465 ft
- Code IATA : LEJ


EDDP - Leipzig Halle

DERNIER METAR :
  • 290650Z 30009KT 9999 FEW020 SCT040 BKN110 18/16 Q0994 NOSIG

METARs EXPIRÉS :
  • 290620Z 32008KT 9999 FEW026 SCT100 BKN130 18/16 Q0994 NOSIG
  • 290550Z 32009KT CAVOK 17/16 Q0994 NOSIG
  • 290520Z 32007KT CAVOK 17/16 Q0994 NOSIG
  • 290450Z 33007KT CAVOK 16/15 Q0994 NOSIG
  • 290420Z 32006KT 9999 PRFG NSC 16/15 Q0994 TEMPO 3500 BR

TAF TAF EDDP
Valide du 29 à 06h jusqu'au 30 à 06h UTC


290500Z 2906/3006 30005KT 9999 SCT015 BKN045
TEMPO 2906/2908 4000 -RA BR BKN008
PROB30
TEMPO 2908/2916 4000 RA BKN013
BECMG 2909/2912 26011KT
TEMPO 2914/2918 23015G25KT
Pas de NOTAMs connus pour ce terrain.
1 SIGMET publié pour la FIR München (EDMM) :
 
Orages obscurcis
EDMM SIGMET 3 VALID 290647/290747 EDZM
EDMM MUNCHEN FIR OBSC TS OBS N OF N5045 AND E OF E01345 TOP FL300 MOV N NC=



MET'MAP, la Météo Aéronautique d'un coup d'oeil ! - Copyright ORBIFLY Décembre 2007 - Disclaimer

ORBIFLY MET'MAP TEAM :

Programmation & Développement : Alexandra Zaïnal
Conception & Développement : Baudouin d'Aumeries
Co-Programmation & Développement : Marc-Olivier Méhu
Soutien technique & logistique : Manuel Goepfert

Contact : metmap@orbifly.com




SOURCES & CREDITS :

   NOAA